sensor_id;sensor_type;location;lat;lon;timestamp;temperature;humidity
36856;DHT22;22788;51.434;6.786;2023-09-30T00:01:00;17.80;99.90
36856;DHT22;22788;51.434;6.786;2023-09-30T00:03:26;17.80;99.90
36856;DHT22;22788;51.434;6.786;2023-09-30T00:05:51;17.70;99.90
36856;DHT22;22788;51.434;6.786;2023-09-30T00:08:18;17.80;99.90
36856;DHT22;22788;51.434;6.786;2023-09-30T00:10:44;17.80;99.90
36856;DHT22;22788;51.434;6.786;2023-09-30T00:13:10;17.70;99.90
36856;DHT22;22788;51.434;6.786;2023-09-30T00:15:35;17.70;99.90
36856;DHT22;22788;51.434;6.786;2023-09-30T00:18:01;17.70;99.90
36856;DHT22;22788;51.434;6.786;2023-09-30T00:20:27;17.70;99.90
36856;DHT22;22788;51.434;6.786;2023-09-30T00:22:52;17.70;99.90
36856;DHT22;22788;51.434;6.786;2023-09-30T00:25:20;17.70;99.90
36856;DHT22;22788;51.434;6.786;2023-09-30T00:27:45;17.70;99.90
36856;DHT22;22788;51.434;6.786;2023-09-30T00:30:11;17.70;99.90
36856;DHT22;22788;51.434;6.786;2023-09-30T00:32:37;17.70;99.90
36856;DHT22;22788;51.434;6.786;2023-09-30T00:35:03;17.60;99.90
36856;DHT22;22788;51.434;6.786;2023-09-30T00:37:28;17.60;99.90
36856;DHT22;22788;51.434;6.786;2023-09-30T00:39:54;17.60;99.90
36856;DHT22;22788;51.434;6.786;2023-09-30T00:42:21;17.70;99.90
36856;DHT22;22788;51.434;6.786;2023-09-30T00:44:47;17.70;99.90
36856;DHT22;22788;51.434;6.786;2023-09-30T00:47:13;17.60;99.90
36856;DHT22;22788;51.434;6.786;2023-09-30T00:49:38;17.60;99.90
36856;DHT22;22788;51.434;6.786;2023-09-30T00:52:04;17.60;99.90
36856;DHT22;22788;51.434;6.786;2023-09-30T00:54:30;17.60;99.90
36856;DHT22;22788;51.434;6.786;2023-09-30T00:56:57;17.60;99.90
36856;DHT22;22788;51.434;6.786;2023-09-30T00:59:24;17.60;99.90
36856;DHT22;22788;51.434;6.786;2023-09-30T01:01:50;17.60;99.90
36856;DHT22;22788;51.434;6.786;2023-09-30T01:04:15;17.60;99.90
36856;DHT22;22788;51.434;6.786;2023-09-30T01:06:41;17.60;99.90
36856;DHT22;22788;51.434;6.786;2023-09-30T01:09:07;17.60;99.90
36856;DHT22;22788;51.434;6.786;2023-09-30T01:11:33;17.60;99.90
36856;DHT22;22788;51.434;6.786;2023-09-30T01:13:59;17.60;99.90
36856;DHT22;22788;51.434;6.786;2023-09-30T01:16:26;17.50;99.90
36856;DHT22;22788;51.434;6.786;2023-09-30T01:18:51;17.50;99.90
36856;DHT22;22788;51.434;6.786;2023-09-30T01:21:18;17.50;99.90
36856;DHT22;22788;51.434;6.786;2023-09-30T01:23:45;17.50;99.90
36856;DHT22;22788;51.434;6.786;2023-09-30T01:26:12;17.50;99.90
36856;DHT22;22788;51.434;6.786;2023-09-30T01:28:38;17.50;99.90
36856;DHT22;22788;51.434;6.786;2023-09-30T01:31:04;17.50;99.90
36856;DHT22;22788;51.434;6.786;2023-09-30T01:33:30;17.50;99.90
36856;DHT22;22788;51.434;6.786;2023-09-30T01:35:56;17.50;99.90
36856;DHT22;22788;51.434;6.786;2023-09-30T01:38:21;17.50;99.90
36856;DHT22;22788;51.434;6.786;2023-09-30T01:40:49;17.40;99.90
36856;DHT22;22788;51.434;6.786;2023-09-30T01:43:15;17.40;99.90
36856;DHT22;22788;51.434;6.786;2023-09-30T01:45:41;17.40;99.90
36856;DHT22;22788;51.434;6.786;2023-09-30T01:48:07;17.40;99.90
36856;DHT22;22788;51.434;6.786;2023-09-30T01:50:32;17.40;99.90
36856;DHT22;22788;51.434;6.786;2023-09-30T01:52:58;17.40;99.90
36856;DHT22;22788;51.434;6.786;2023-09-30T01:55:24;17.40;99.90
36856;DHT22;22788;51.434;6.786;2023-09-30T01:57:51;17.40;99.90
36856;DHT22;22788;51.434;6.786;2023-09-30T02:00:17;17.40;99.90
36856;DHT22;22788;51.434;6.786;2023-09-30T02:02:42;17.40;99.90
36856;DHT22;22788;51.434;6.786;2023-09-30T02:05:08;17.40;99.90
36856;DHT22;22788;51.434;6.786;2023-09-30T02:07:34;17.40;99.90
36856;DHT22;22788;51.434;6.786;2023-09-30T02:10:00;17.40;99.90
36856;DHT22;22788;51.434;6.786;2023-09-30T02:12:26;17.30;99.90
36856;DHT22;22788;51.434;6.786;2023-09-30T02:14:54;17.30;99.90
36856;DHT22;22788;51.434;6.786;2023-09-30T02:17:19;17.30;99.90
36856;DHT22;22788;51.434;6.786;2023-09-30T02:19:45;17.30;99.90
36856;DHT22;22788;51.434;6.786;2023-09-30T02:22:10;17.40;99.90
36856;DHT22;22788;51.434;6.786;2023-09-30T02:24:36;17.30;99.90
36856;DHT22;22788;51.434;6.786;2023-09-30T02:27:02;17.30;99.90
36856;DHT22;22788;51.434;6.786;2023-09-30T02:29:27;17.40;99.90
36856;DHT22;22788;51.434;6.786;2023-09-30T02:31:55;17.40;99.90
36856;DHT22;22788;51.434;6.786;2023-09-30T02:34:21;17.30;99.90
36856;DHT22;22788;51.434;6.786;2023-09-30T02:36:46;17.30;99.90
36856;DHT22;22788;51.434;6.786;2023-09-30T02:39:12;17.30;99.90
36856;DHT22;22788;51.434;6.786;2023-09-30T02:41:37;17.30;99.90
36856;DHT22;22788;51.434;6.786;2023-09-30T02:44:03;17.40;99.90
36856;DHT22;22788;51.434;6.786;2023-09-30T02:46:29;17.20;99.90
36856;DHT22;22788;51.434;6.786;2023-09-30T02:48:56;17.30;99.90
36856;DHT22;22788;51.434;6.786;2023-09-30T02:51:22;17.20;99.90
36856;DHT22;22788;51.434;6.786;2023-09-30T02:53:48;17.20;99.90
36856;DHT22;22788;51.434;6.786;2023-09-30T02:56:13;17.20;99.90
36856;DHT22;22788;51.434;6.786;2023-09-30T02:58:39;17.30;99.90
36856;DHT22;22788;51.434;6.786;2023-09-30T03:01:04;17.20;99.90
36856;DHT22;22788;51.434;6.786;2023-09-30T03:03:30;17.20;99.90
36856;DHT22;22788;51.434;6.786;2023-09-30T03:05:57;17.20;99.90
36856;DHT22;22788;51.434;6.786;2023-09-30T03:08:23;17.20;99.90
36856;DHT22;22788;51.434;6.786;2023-09-30T03:10:48;17.20;99.90
36856;DHT22;22788;51.434;6.786;2023-09-30T03:13:14;17.20;99.90
36856;DHT22;22788;51.434;6.786;2023-09-30T03:15:39;17.30;99.90
36856;DHT22;22788;51.434;6.786;2023-09-30T03:18:05;17.10;99.90
36856;DHT22;22788;51.434;6.786;2023-09-30T03:20:31;17.20;99.90
36856;DHT22;22788;51.434;6.786;2023-09-30T03:22:58;17.20;99.90
36856;DHT22;22788;51.434;6.786;2023-09-30T03:25:23;17.10;99.90
36856;DHT22;22788;51.434;6.786;2023-09-30T03:27:49;17.10;99.90
36856;DHT22;22788;51.434;6.786;2023-09-30T03:30:15;17.10;99.90
36856;DHT22;22788;51.434;6.786;2023-09-30T03:32:41;17.10;99.90
36856;DHT22;22788;51.434;6.786;2023-09-30T03:35:08;17.00;99.90
36856;DHT22;22788;51.434;6.786;2023-09-30T03:37:34;17.10;99.90
36856;DHT22;22788;51.434;6.786;2023-09-30T03:40:01;17.10;99.90
36856;DHT22;22788;51.434;6.786;2023-09-30T03:42:27;17.10;99.90
36856;DHT22;22788;51.434;6.786;2023-09-30T03:44:52;17.10;99.90
36856;DHT22;22788;51.434;6.786;2023-09-30T03:47:18;17.10;99.90
36856;DHT22;22788;51.434;6.786;2023-09-30T03:49:44;17.10;99.90
36856;DHT22;22788;51.434;6.786;2023-09-30T03:52:10;17.10;99.90
36856;DHT22;22788;51.434;6.786;2023-09-30T03:54:36;17.10;99.90
36856;DHT22;22788;51.434;6.786;2023-09-30T03:57:03;17.10;99.90
36856;DHT22;22788;51.434;6.786;2023-09-30T03:59:29;17.00;99.90
36856;DHT22;22788;51.434;6.786;2023-09-30T04:01:55;17.00;99.90
36856;DHT22;22788;51.434;6.786;2023-09-30T04:04:20;17.00;99.90
36856;DHT22;22788;51.434;6.786;2023-09-30T04:06:46;17.00;99.90
36856;DHT22;22788;51.434;6.786;2023-09-30T04:09:12;17.00;99.90
36856;DHT22;22788;51.434;6.786;2023-09-30T04:11:38;17.00;99.90
36856;DHT22;22788;51.434;6.786;2023-09-30T04:14:06;17.00;99.90
36856;DHT22;22788;51.434;6.786;2023-09-30T04:16:32;17.00;99.90
36856;DHT22;22788;51.434;6.786;2023-09-30T04:18:58;17.00;99.90
36856;DHT22;22788;51.434;6.786;2023-09-30T04:21:24;17.00;99.90
36856;DHT22;22788;51.434;6.786;2023-09-30T04:23:49;17.00;99.90
36856;DHT22;22788;51.434;6.786;2023-09-30T04:26:15;17.00;99.90
36856;DHT22;22788;51.434;6.786;2023-09-30T04:28:41;17.00;99.90
36856;DHT22;22788;51.434;6.786;2023-09-30T04:31:08;16.90;99.90
36856;DHT22;22788;51.434;6.786;2023-09-30T04:33:33;16.90;99.90
36856;DHT22;22788;51.434;6.786;2023-09-30T04:35:59;16.90;99.90
36856;DHT22;22788;51.434;6.786;2023-09-30T04:38:24;16.90;99.90
36856;DHT22;22788;51.434;6.786;2023-09-30T04:40:50;16.90;99.90
36856;DHT22;22788;51.434;6.786;2023-09-30T04:43:16;16.90;99.90
36856;DHT22;22788;51.434;6.786;2023-09-30T04:45:41;16.90;99.90
36856;DHT22;22788;51.434;6.786;2023-09-30T04:48:08;16.90;99.90
36856;DHT22;22788;51.434;6.786;2023-09-30T04:50:34;16.90;99.90
36856;DHT22;22788;51.434;6.786;2023-09-30T04:52:59;16.90;99.90
36856;DHT22;22788;51.434;6.786;2023-09-30T04:55:25;16.90;99.90
36856;DHT22;22788;51.434;6.786;2023-09-30T04:57:51;16.90;99.90
36856;DHT22;22788;51.434;6.786;2023-09-30T05:00:18;16.90;99.90
36856;DHT22;22788;51.434;6.786;2023-09-30T05:02:44;16.90;99.90
36856;DHT22;22788;51.434;6.786;2023-09-30T05:05:12;16.80;99.90
36856;DHT22;22788;51.434;6.786;2023-09-30T05:07:37;16.90;99.90
36856;DHT22;22788;51.434;6.786;2023-09-30T05:10:03;16.80;99.90
36856;DHT22;22788;51.434;6.786;2023-09-30T05:12:29;16.80;99.90
36856;DHT22;22788;51.434;6.786;2023-09-30T05:14:55;16.80;99.90
36856;DHT22;22788;51.434;6.786;2023-09-30T05:17:21;16.80;99.90
36856;DHT22;22788;51.434;6.786;2023-09-30T05:19:46;16.80;99.90
36856;DHT22;22788;51.434;6.786;2023-09-30T05:22:13;16.80;99.90
36856;DHT22;22788;51.434;6.786;2023-09-30T05:24:39;16.80;99.90
36856;DHT22;22788;51.434;6.786;2023-09-30T05:27:04;16.80;99.90
36856;DHT22;22788;51.434;6.786;2023-09-30T05:29:30;16.70;99.90
36856;DHT22;22788;51.434;6.786;2023-09-30T05:31:56;16.70;99.90
36856;DHT22;22788;51.434;6.786;2023-09-30T05:34:21;16.70;99.90
36856;DHT22;22788;51.434;6.786;2023-09-30T05:36:47;16.70;99.90
36856;DHT22;22788;51.434;6.786;2023-09-30T05:39:14;16.80;99.90
36856;DHT22;22788;51.434;6.786;2023-09-30T05:41:39;16.70;99.90
36856;DHT22;22788;51.434;6.786;2023-09-30T05:44:05;16.70;99.90
36856;DHT22;22788;51.434;6.786;2023-09-30T05:46:31;16.80;99.90
36856;DHT22;22788;51.434;6.786;2023-09-30T05:48:57;16.70;99.90
36856;DHT22;22788;51.434;6.786;2023-09-30T05:51:22;16.70;99.90
36856;DHT22;22788;51.434;6.786;2023-09-30T05:53:48;16.70;99.90
36856;DHT22;22788;51.434;6.786;2023-09-30T05:56:15;16.70;99.90
36856;DHT22;22788;51.434;6.786;2023-09-30T05:58:40;16.70;99.90
36856;DHT22;22788;51.434;6.786;2023-09-30T06:01:07;16.70;99.90
36856;DHT22;22788;51.434;6.786;2023-09-30T06:03:33;16.80;99.90
36856;DHT22;22788;51.434;6.786;2023-09-30T06:05:59;16.70;99.90
36856;DHT22;22788;51.434;6.786;2023-09-30T06:08:24;16.80;99.90
36856;DHT22;22788;51.434;6.786;2023-09-30T06:10:50;16.70;99.90
36856;DHT22;22788;51.434;6.786;2023-09-30T06:13:17;16.70;99.90
36856;DHT22;22788;51.434;6.786;2023-09-30T06:15:42;16.70;99.90
36856;DHT22;22788;51.434;6.786;2023-09-30T06:18:09;16.70;99.90
36856;DHT22;22788;51.434;6.786;2023-09-30T06:20:35;16.60;99.90
36856;DHT22;22788;51.434;6.786;2023-09-30T06:23:01;16.70;99.90
36856;DHT22;22788;51.434;6.786;2023-09-30T06:25:26;16.70;99.90
36856;DHT22;22788;51.434;6.786;2023-09-30T06:27:52;16.60;99.90
36856;DHT22;22788;51.434;6.786;2023-09-30T06:30:20;16.60;99.90
36856;DHT22;22788;51.434;6.786;2023-09-30T06:32:45;16.60;99.90
36856;DHT22;22788;51.434;6.786;2023-09-30T06:35:11;16.60;99.90
36856;DHT22;22788;51.434;6.786;2023-09-30T06:37:37;16.60;99.90
36856;DHT22;22788;51.434;6.786;2023-09-30T06:40:03;16.60;99.90
36856;DHT22;22788;51.434;6.786;2023-09-30T06:42:29;16.70;99.90
36856;DHT22;22788;51.434;6.786;2023-09-30T06:44:55;16.60;99.90
36856;DHT22;22788;51.434;6.786;2023-09-30T06:47:22;16.60;99.90
36856;DHT22;22788;51.434;6.786;2023-09-30T06:49:48;16.60;99.90
36856;DHT22;22788;51.434;6.786;2023-09-30T06:52:13;16.60;99.90
36856;DHT22;22788;51.434;6.786;2023-09-30T06:54:39;16.60;99.90
36856;DHT22;22788;51.434;6.786;2023-09-30T06:57:04;16.70;99.90
36856;DHT22;22788;51.434;6.786;2023-09-30T06:59:32;16.60;99.90
36856;DHT22;22788;51.434;6.786;2023-09-30T07:01:57;16.60;99.90
36856;DHT22;22788;51.434;6.786;2023-09-30T07:04:24;16.60;99.90
36856;DHT22;22788;51.434;6.786;2023-09-30T07:06:50;16.60;99.90
36856;DHT22;22788;51.434;6.786;2023-09-30T07:09:15;16.60;99.90
36856;DHT22;22788;51.434;6.786;2023-09-30T07:11:41;16.60;99.90
36856;DHT22;22788;51.434;6.786;2023-09-30T07:14:07;16.60;99.90
36856;DHT22;22788;51.434;6.786;2023-09-30T07:16:32;16.50;99.90
36856;DHT22;22788;51.434;6.786;2023-09-30T07:18:58;15.80;99.90
36856;DHT22;22788;51.434;6.786;2023-09-30T07:21:25;16.60;99.90
36856;DHT22;22788;51.434;6.786;2023-09-30T07:23:51;16.40;99.90
36856;DHT22;22788;51.434;6.786;2023-09-30T07:26:16;16.40;99.90
36856;DHT22;22788;51.434;6.786;2023-09-30T07:28:42;16.40;99.90
36856;DHT22;22788;51.434;6.786;2023-09-30T07:31:07;16.50;99.90
36856;DHT22;22788;51.434;6.786;2023-09-30T07:33:33;16.40;99.90
36856;DHT22;22788;51.434;6.786;2023-09-30T07:35:59;16.40;99.90
36856;DHT22;22788;51.434;6.786;2023-09-30T07:38:25;16.40;99.90
36856;DHT22;22788;51.434;6.786;2023-09-30T07:40:51;16.40;99.90
36856;DHT22;22788;51.434;6.786;2023-09-30T07:43:17;16.40;99.90
36856;DHT22;22788;51.434;6.786;2023-09-30T07:45:42;16.40;99.90
36856;DHT22;22788;51.434;6.786;2023-09-30T07:48:08;16.40;99.90
36856;DHT22;22788;51.434;6.786;2023-09-30T07:50:34;16.50;99.90
36856;DHT22;22788;51.434;6.786;2023-09-30T07:52:59;16.50;99.90
36856;DHT22;22788;51.434;6.786;2023-09-30T07:55:26;16.40;99.90
36856;DHT22;22788;51.434;6.786;2023-09-30T07:57:52;16.50;99.90
36856;DHT22;22788;51.434;6.786;2023-09-30T08:00:18;16.50;99.90
36856;DHT22;22788;51.434;6.786;2023-09-30T08:02:43;16.50;99.90
36856;DHT22;22788;51.434;6.786;2023-09-30T08:05:09;16.50;99.90
36856;DHT22;22788;51.434;6.786;2023-09-30T08:07:35;16.40;99.90
36856;DHT22;22788;51.434;6.786;2023-09-30T08:10:01;16.40;99.90
36856;DHT22;22788;51.434;6.786;2023-09-30T08:12:29;16.50;99.90
36856;DHT22;22788;51.434;6.786;2023-09-30T08:14:54;16.40;99.90
36856;DHT22;22788;51.434;6.786;2023-09-30T08:17:20;16.40;99.90
36856;DHT22;22788;51.434;6.786;2023-09-30T08:19:45;16.50;99.90
36856;DHT22;22788;51.434;6.786;2023-09-30T08:22:11;16.60;99.90
36856;DHT22;22788;51.434;6.786;2023-09-30T08:24:36;16.50;99.90
36856;DHT22;22788;51.434;6.786;2023-09-30T08:27:02;16.60;99.90
36856;DHT22;22788;51.434;6.786;2023-09-30T08:29:29;16.50;99.90
36856;DHT22;22788;51.434;6.786;2023-09-30T08:31:55;16.50;99.90
36856;DHT22;22788;51.434;6.786;2023-09-30T08:34:20;16.50;99.90
36856;DHT22;22788;51.434;6.786;2023-09-30T08:36:46;16.50;99.90
36856;DHT22;22788;51.434;6.786;2023-09-30T08:39:11;16.50;99.90
36856;DHT22;22788;51.434;6.786;2023-09-30T08:41:37;16.60;99.90
36856;DHT22;22788;51.434;6.786;2023-09-30T08:44:03;16.50;99.90
36856;DHT22;22788;51.434;6.786;2023-09-30T08:46:32;16.50;99.90
36856;DHT22;22788;51.434;6.786;2023-09-30T08:49:00;16.50;99.90
36856;DHT22;22788;51.434;6.786;2023-09-30T08:51:26;16.50;99.90
36856;DHT22;22788;51.434;6.786;2023-09-30T08:53:52;16.50;99.90
36856;DHT22;22788;51.434;6.786;2023-09-30T08:56:19;16.50;99.90
36856;DHT22;22788;51.434;6.786;2023-09-30T08:58:47;16.60;99.90
36856;DHT22;22788;51.434;6.786;2023-09-30T09:01:13;16.60;99.90
36856;DHT22;22788;51.434;6.786;2023-09-30T09:03:41;16.60;99.90
36856;DHT22;22788;51.434;6.786;2023-09-30T09:06:07;16.60;99.90
36856;DHT22;22788;51.434;6.786;2023-09-30T09:08:32;16.60;99.90
36856;DHT22;22788;51.434;6.786;2023-09-30T09:10:59;16.60;99.90
36856;DHT22;22788;51.434;6.786;2023-09-30T09:13:25;16.70;99.90
36856;DHT22;22788;51.434;6.786;2023-09-30T09:16:05;16.70;99.90
36856;DHT22;22788;51.434;6.786;2023-09-30T09:18:32;16.60;99.90
36856;DHT22;22788;51.434;6.786;2023-09-30T09:21:09;16.60;99.90
36856;DHT22;22788;51.434;6.786;2023-09-30T09:23:39;16.60;99.90
36856;DHT22;22788;51.434;6.786;2023-09-30T09:26:05;16.60;99.90
36856;DHT22;22788;51.434;6.786;2023-09-30T09:28:34;16.60;99.90
36856;DHT22;22788;51.434;6.786;2023-09-30T09:30:59;16.60;99.90
36856;DHT22;22788;51.434;6.786;2023-09-30T09:33:35;16.60;99.90
36856;DHT22;22788;51.434;6.786;2023-09-30T09:36:00;16.60;99.90
36856;DHT22;22788;51.434;6.786;2023-09-30T09:38:43;16.70;99.90
36856;DHT22;22788;51.434;6.786;2023-09-30T09:41:09;16.80;99.90
36856;DHT22;22788;51.434;6.786;2023-09-30T09:43:36;16.80;99.90
36856;DHT22;22788;51.434;6.786;2023-09-30T09:46:03;16.70;99.90
36856;DHT22;22788;51.434;6.786;2023-09-30T09:48:33;16.70;99.90
36856;DHT22;22788;51.434;6.786;2023-09-30T09:50:59;16.70;99.90
36856;DHT22;22788;51.434;6.786;2023-09-30T09:53:27;16.70;99.90
36856;DHT22;22788;51.434;6.786;2023-09-30T09:55:56;16.70;99.90
36856;DHT22;22788;51.434;6.786;2023-09-30T09:58:24;16.60;99.90
36856;DHT22;22788;51.434;6.786;2023-09-30T10:00:52;16.70;99.90
36856;DHT22;22788;51.434;6.786;2023-09-30T10:03:17;16.60;99.90
36856;DHT22;22788;51.434;6.786;2023-09-30T10:05:43;16.60;99.90
36856;DHT22;22788;51.434;6.786;2023-09-30T10:08:14;16.60;99.90
36856;DHT22;22788;51.434;6.786;2023-09-30T10:10:42;16.70;99.90
36856;DHT22;22788;51.434;6.786;2023-09-30T10:13:09;16.70;99.90
36856;DHT22;22788;51.434;6.786;2023-09-30T10:15:38;16.70;99.90
36856;DHT22;22788;51.434;6.786;2023-09-30T10:18:05;16.70;99.90
36856;DHT22;22788;51.434;6.786;2023-09-30T10:20:32;16.80;99.90
36856;DHT22;22788;51.434;6.786;2023-09-30T10:23:20;16.80;99.90
36856;DHT22;22788;51.434;6.786;2023-09-30T10:25:48;16.80;99.90
36856;DHT22;22788;51.434;6.786;2023-09-30T10:28:36;16.90;99.90
36856;DHT22;22788;51.434;6.786;2023-09-30T10:31:12;16.90;99.90
36856;DHT22;22788;51.434;6.786;2023-09-30T10:34:17;17.00;99.90
36856;DHT22;22788;51.434;6.786;2023-09-30T10:36:43;17.10;99.90
36856;DHT22;22788;51.434;6.786;2023-09-30T10:39:12;17.00;99.90
36856;DHT22;22788;51.434;6.786;2023-09-30T10:42:00;17.00;99.90
36856;DHT22;22788;51.434;6.786;2023-09-30T10:44:35;17.00;99.90
36856;DHT22;22788;51.434;6.786;2023-09-30T10:47:35;17.00;99.90
36856;DHT22;22788;51.434;6.786;2023-09-30T10:50:01;17.00;99.90
36856;DHT22;22788;51.434;6.786;2023-09-30T10:52:27;17.10;99.90
36856;DHT22;22788;51.434;6.786;2023-09-30T10:54:52;17.10;99.90
36856;DHT22;22788;51.434;6.786;2023-09-30T10:57:27;17.10;99.90
36856;DHT22;22788;51.434;6.786;2023-09-30T11:00:07;17.10;99.90
36856;DHT22;22788;51.434;6.786;2023-09-30T11:02:33;17.20;99.90
36856;DHT22;22788;51.434;6.786;2023-09-30T11:05:08;17.20;99.90
36856;DHT22;22788;51.434;6.786;2023-09-30T11:07:34;17.30;99.90
36856;DHT22;22788;51.434;6.786;2023-09-30T11:10:01;17.20;99.90
36856;DHT22;22788;51.434;6.786;2023-09-30T11:12:28;17.20;99.90
36856;DHT22;22788;51.434;6.786;2023-09-30T11:14:59;17.30;99.90
36856;DHT22;22788;51.434;6.786;2023-09-30T11:17:25;17.30;99.90
36856;DHT22;22788;51.434;6.786;2023-09-30T11:19:50;17.40;99.90
36856;DHT22;22788;51.434;6.786;2023-09-30T11:22:16;17.30;99.90
36856;DHT22;22788;51.434;6.786;2023-09-30T11:24:42;17.30;99.90
36856;DHT22;22788;51.434;6.786;2023-09-30T11:27:08;17.30;99.90
36856;DHT22;22788;51.434;6.786;2023-09-30T11:29:34;17.40;99.90
36856;DHT22;22788;51.434;6.786;2023-09-30T11:32:00;17.40;99.90
36856;DHT22;22788;51.434;6.786;2023-09-30T11:34:31;17.40;99.90
36856;DHT22;22788;51.434;6.786;2023-09-30T11:36:58;17.40;99.90
36856;DHT22;22788;51.434;6.786;2023-09-30T11:39:27;17.40;99.90
36856;DHT22;22788;51.434;6.786;2023-09-30T11:41:53;17.40;99.90
36856;DHT22;22788;51.434;6.786;2023-09-30T11:44:19;17.40;99.90
36856;DHT22;22788;51.434;6.786;2023-09-30T11:46:50;17.40;99.90
36856;DHT22;22788;51.434;6.786;2023-09-30T11:49:29;17.50;99.90
36856;DHT22;22788;51.434;6.786;2023-09-30T11:51:55;17.50;99.90
36856;DHT22;22788;51.434;6.786;2023-09-30T11:54:21;17.50;99.90
36856;DHT22;22788;51.434;6.786;2023-09-30T11:56:47;17.50;99.90
36856;DHT22;22788;51.434;6.786;2023-09-30T11:59:13;17.50;99.90
36856;DHT22;22788;51.434;6.786;2023-09-30T12:01:38;17.50;99.90
36856;DHT22;22788;51.434;6.786;2023-09-30T12:04:05;17.60;99.90
36856;DHT22;22788;51.434;6.786;2023-09-30T12:06:31;17.60;99.90
36856;DHT22;22788;51.434;6.786;2023-09-30T12:08:57;17.50;99.90
36856;DHT22;22788;51.434;6.786;2023-09-30T12:11:22;17.50;99.90
36856;DHT22;22788;51.434;6.786;2023-09-30T12:13:48;17.50;99.90
36856;DHT22;22788;51.434;6.786;2023-09-30T12:16:14;17.50;99.90
36856;DHT22;22788;51.434;6.786;2023-09-30T12:18:39;17.50;99.90
36856;DHT22;22788;51.434;6.786;2023-09-30T12:21:07;17.50;99.90
36856;DHT22;22788;51.434;6.786;2023-09-30T12:23:32;17.50;99.90
36856;DHT22;22788;51.434;6.786;2023-09-30T12:25:58;17.50;99.90
36856;DHT22;22788;51.434;6.786;2023-09-30T12:28:23;17.40;99.90
36856;DHT22;22788;51.434;6.786;2023-09-30T12:30:49;17.40;99.90
36856;DHT22;22788;51.434;6.786;2023-09-30T12:33:15;17.40;99.90
36856;DHT22;22788;51.434;6.786;2023-09-30T12:35:40;17.50;99.90
36856;DHT22;22788;51.434;6.786;2023-09-30T12:38:07;17.50;99.90
36856;DHT22;22788;51.434;6.786;2023-09-30T12:40:33;17.50;99.90
36856;DHT22;22788;51.434;6.786;2023-09-30T12:42:58;17.60;99.90
36856;DHT22;22788;51.434;6.786;2023-09-30T12:45:24;17.60;99.90
36856;DHT22;22788;51.434;6.786;2023-09-30T12:47:50;17.60;99.90
36856;DHT22;22788;51.434;6.786;2023-09-30T12:50:15;17.60;99.90
36856;DHT22;22788;51.434;6.786;2023-09-30T12:52:41;17.60;99.90
36856;DHT22;22788;51.434;6.786;2023-09-30T12:55:09;17.60;99.90
36856;DHT22;22788;51.434;6.786;2023-09-30T12:57:34;17.60;99.90
36856;DHT22;22788;51.434;6.786;2023-09-30T13:00:00;17.70;99.90
36856;DHT22;22788;51.434;6.786;2023-09-30T13:02:25;17.70;99.90
36856;DHT22;22788;51.434;6.786;2023-09-30T13:04:51;17.70;99.90
36856;DHT22;22788;51.434;6.786;2023-09-30T13:07:17;17.70;99.90
36856;DHT22;22788;51.434;6.786;2023-09-30T13:09:42;17.70;99.90
36856;DHT22;22788;51.434;6.786;2023-09-30T13:12:10;17.70;99.90
36856;DHT22;22788;51.434;6.786;2023-09-30T13:14:36;17.70;99.90
36856;DHT22;22788;51.434;6.786;2023-09-30T13:17:01;17.70;99.90
36856;DHT22;22788;51.434;6.786;2023-09-30T13:19:27;17.60;99.90
36856;DHT22;22788;51.434;6.786;2023-09-30T13:21:52;17.60;99.90
36856;DHT22;22788;51.434;6.786;2023-09-30T13:24:18;17.60;99.90
36856;DHT22;22788;51.434;6.786;2023-09-30T13:26:44;17.60;99.90
36856;DHT22;22788;51.434;6.786;2023-09-30T13:29:11;17.50;99.90
36856;DHT22;22788;51.434;6.786;2023-09-30T13:31:36;17.60;99.90
36856;DHT22;22788;51.434;6.786;2023-09-30T13:34:02;17.60;99.90
36856;DHT22;22788;51.434;6.786;2023-09-30T13:36:28;17.60;99.90
36856;DHT22;22788;51.434;6.786;2023-09-30T13:38:53;17.60;99.90
36856;DHT22;22788;51.434;6.786;2023-09-30T13:41:19;17.60;99.90
36856;DHT22;22788;51.434;6.786;2023-09-30T13:43:44;17.70;99.90
36856;DHT22;22788;51.434;6.786;2023-09-30T13:46:11;17.70;99.90
36856;DHT22;22788;51.434;6.786;2023-09-30T13:48:37;17.70;99.90
36856;DHT22;22788;51.434;6.786;2023-09-30T13:51:06;17.70;99.90
36856;DHT22;22788;51.434;6.786;2023-09-30T13:53:32;17.70;99.90
36856;DHT22;22788;51.434;6.786;2023-09-30T13:55:58;17.70;99.90
36856;DHT22;22788;51.434;6.786;2023-09-30T13:58:23;17.70;99.90
36856;DHT22;22788;51.434;6.786;2023-09-30T14:00:49;17.70;99.90
36856;DHT22;22788;51.434;6.786;2023-09-30T14:03:16;17.70;99.90
36856;DHT22;22788;51.434;6.786;2023-09-30T14:05:42;17.70;99.90
36856;DHT22;22788;51.434;6.786;2023-09-30T14:08:07;17.70;99.90
36856;DHT22;22788;51.434;6.786;2023-09-30T14:10:33;17.70;99.90
36856;DHT22;22788;51.434;6.786;2023-09-30T14:12:58;17.70;99.90
36856;DHT22;22788;51.434;6.786;2023-09-30T14:15:24;17.70;99.90
36856;DHT22;22788;51.434;6.786;2023-09-30T14:17:50;17.70;99.90
36856;DHT22;22788;51.434;6.786;2023-09-30T14:20:17;17.70;99.90
36856;DHT22;22788;51.434;6.786;2023-09-30T14:22:42;17.70;99.90
36856;DHT22;22788;51.434;6.786;2023-09-30T14:25:08;17.80;99.90
36856;DHT22;22788;51.434;6.786;2023-09-30T14:27:34;17.80;99.90
36856;DHT22;22788;51.434;6.786;2023-09-30T14:29:59;17.80;99.90
36856;DHT22;22788;51.434;6.786;2023-09-30T14:32:25;17.80;99.90
36856;DHT22;22788;51.434;6.786;2023-09-30T14:34:51;17.80;99.90
36856;DHT22;22788;51.434;6.786;2023-09-30T14:37:18;17.80;99.90
36856;DHT22;22788;51.434;6.786;2023-09-30T14:39:43;17.80;99.90
36856;DHT22;22788;51.434;6.786;2023-09-30T14:42:09;17.80;99.90
36856;DHT22;22788;51.434;6.786;2023-09-30T14:44:34;17.80;99.90
36856;DHT22;22788;51.434;6.786;2023-09-30T14:47:00;17.80;99.90
36856;DHT22;22788;51.434;6.786;2023-09-30T14:49:25;17.70;99.90
36856;DHT22;22788;51.434;6.786;2023-09-30T14:51:51;17.70;99.90
36856;DHT22;22788;51.434;6.786;2023-09-30T14:54:18;17.80;99.90
36856;DHT22;22788;51.434;6.786;2023-09-30T14:56:44;17.80;99.90
36856;DHT22;22788;51.434;6.786;2023-09-30T14:59:09;17.80;99.90
36856;DHT22;22788;51.434;6.786;2023-09-30T15:01:35;17.80;99.90
36856;DHT22;22788;51.434;6.786;2023-09-30T15:04:00;17.10;99.90
36856;DHT22;22788;51.434;6.786;2023-09-30T15:06:26;17.80;99.90
36856;DHT22;22788;51.434;6.786;2023-09-30T15:08:52;17.80;99.90
36856;DHT22;22788;51.434;6.786;2023-09-30T15:11:19;17.70;99.90
36856;DHT22;22788;51.434;6.786;2023-09-30T15:13:44;17.80;99.90
36856;DHT22;22788;51.434;6.786;2023-09-30T15:16:15;17.80;99.90
36856;DHT22;22788;51.434;6.786;2023-09-30T15:18:41;17.80;99.90
36856;DHT22;22788;51.434;6.786;2023-09-30T15:21:06;17.80;99.90
36856;DHT22;22788;51.434;6.786;2023-09-30T15:23:32;17.80;99.90
36856;DHT22;22788;51.434;6.786;2023-09-30T15:25:57;17.80;99.90